Time;durP1;ratioP1;P1;durP2;ratioP2;P2;SDS_P1;SDS_P2;PMS_P1;PMS_P2;Temp;Humidity;BMP_temperature;BMP_pressure;BME280_temperature;BME280_humidity;BME280_pressure;Samples;Min_cycle;Max_cycle;Signal;HPM_P1;HPM_P2
2021/08/07 00:02:22;;;;;;;1.90;1.70;;;17.30;71.80;;;16.99;57.12;94372.75;5017421;28;20206;-83
2021/08/07 00:04:49;;;;;;;2.00;1.77;;;17.30;71.80;;;16.94;57.26;94376.13;5034415;28;20303;-84
2021/08/07 00:07:16;;;;;;;2.08;1.50;;;17.30;71.80;;;16.93;57.65;94377.16;5034513;28;20741;-83
2021/08/07 00:09:44;;;;;;;1.83;1.60;;;17.20;71.80;;;16.88;57.22;94375.25;5017703;28;20239;-83
2021/08/07 00:12:11;;;;;;;1.70;1.60;;;17.20;71.80;;;16.92;57.10;94381.66;5034046;28;20188;-83
2021/08/07 00:14:38;;;;;;;1.70;1.60;;;17.20;72.00;;;16.91;57.25;94381.91;5050520;28;20235;-83
2021/08/07 00:17:06;;;;;;;3.95;1.65;;;17.20;72.10;;;16.90;57.24;94389.03;5033816;28;20226;-84
2021/08/07 00:19:36;;;;;;;1.77;1.48;;;17.20;72.10;;;16.83;57.48;94383.09;5017523;28;20281;-84
2021/08/07 00:22:04;;;;;;;1.67;1.58;;;17.20;72.10;;;16.78;57.19;94389.16;5033597;28;20215;-83
2021/08/07 00:24:32;;;;;;;2.10;1.60;;;17.10;72.10;;;16.70;57.27;94386.09;5033712;28;20208;-83
2021/08/07 00:26:59;;;;;;;1.80;1.50;;;17.10;72.00;;;16.67;57.07;94397.19;5017183;28;20254;-83
2021/08/07 00:29:26;;;;;;;1.83;1.73;;;17.00;71.90;;;16.61;57.43;94396.28;5017022;28;20284;-83
2021/08/07 00:31:53;;;;;;;2.88;1.60;;;17.00;72.00;;;16.57;57.76;94395.19;5033421;28;20204;-84
2021/08/07 00:34:21;;;;;;;2.83;1.60;;;16.90;72.20;;;16.55;57.58;94391.97;5033133;28;20220;-83
2021/08/07 00:36:50;;;;;;;1.80;1.70;;;16.90;72.20;;;16.54;58.28;94385.88;5050168;28;20242;-83
2021/08/07 00:39:17;;;;;;;2.45;1.75;;;16.80;72.30;;;16.54;58.49;94390.34;5032780;28;20230;-83
2021/08/07 00:41:45;;;;;;;3.78;1.80;;;16.80;72.60;;;16.53;58.21;94381.63;5017022;28;20261;-83
2021/08/07 00:44:16;;;;;;;1.95;1.70;;;16.80;72.70;;;16.61;58.50;94385.69;5033480;28;20231;-83
2021/08/07 00:46:45;;;;;;;3.67;2.10;;;16.80;73.00;;;16.65;58.26;94381.53;5032883;28;20211;-83
2021/08/07 00:49:15;;;;;;;2.65;1.50;;;16.80;73.00;;;16.66;57.68;94383.13;5033554;28;20203;-83
2021/08/07 00:51:49;;;;;;;1.88;1.50;;;16.80;72.90;;;16.65;57.73;94386.84;5033391;28;20226;-83
2021/08/07 00:54:20;;;;;;;1.70;1.60;;;16.80;72.90;;;16.63;58.02;94370.38;5016509;28;20258;-83
2021/08/07 00:56:52;;;;;;;2.65;1.50;;;16.80;72.70;;;16.64;57.84;94372.00;5033104;28;20212;-83
2021/08/07 00:59:20;;;;;;;2.35;1.50;;;16.90;72.90;;;16.61;57.48;94383.88;5016792;28;20208;-83
2021/08/07 01:02:14;;;;;;;1.80;1.65;;;16.80;72.70;;;16.56;57.91;94381.13;5032705;28;20192;-83
2021/08/07 01:05:20;;;;;;;2.85;1.50;;;16.80;73.00;;;16.52;57.98;94380.03;5032689;28;20686;-83
2021/08/07 01:08:16;;;;;;;2.95;1.75;;;16.80;72.80;;;16.45;57.78;94374.91;5032826;28;20235;-83
2021/08/07 01:11:00;;;;;;;1.88;1.40;;;16.80;73.00;;;16.42;58.05;94374.59;5016660;28;20219;-83
2021/08/07 01:13:46;;;;;;;1.80;1.70;;;16.70;72.60;;;16.38;58.63;94371.63;5016199;28;20227;-83
2021/08/07 01:16:32;;;;;;;1.60;1.50;;;16.70;73.10;;;16.38;58.27;94376.09;5032270;28;20270;-83
2021/08/07 01:19:04;;;;;;;2.25;1.35;;;16.70;73.40;;;16.34;58.04;94378.41;5016655;28;20211;-83
2021/08/07 01:21:40;;;;;;;2.53;1.60;;;16.60;72.70;;;16.33;58.09;94388.22;5016135;28;20223;-83
2021/08/07 01:24:36;;;;;;;3.75;1.50;;;16.70;73.30;;;16.27;58.03;94386.53;5032595;28;20196;-83
2021/08/07 01:27:26;;;;;;;1.55;1.45;;;16.60;73.30;;;16.25;58.38;94380.66;5014505;28;20565;-83
2021/08/07 01:30:09;;;;;;;7.25;1.60;;;16.60;73.50;;;16.21;58.38;94382.19;5017120;28;20709;-83
2021/08/07 01:32:41;;;;;;;5.63;1.50;;;16.50;73.10;;;16.17;58.63;94376.59;5016599;28;20210;-82
2021/08/07 01:35:09;;;;;;;1.55;1.45;;;16.60;73.10;;;16.13;58.28;94377.28;5015518;28;20235;-83
2021/08/07 01:37:44;;;;;;;2.22;1.58;;;16.50;73.10;;;16.08;58.26;94369.28;5016524;28;20235;-82
2021/08/07 01:40:20;;;;;;;1.92;1.50;;;16.40;73.10;;;16.00;58.86;94368.63;5032229;28;20223;-82
2021/08/07 01:42:56;;;;;;;1.80;1.50;;;16.40;73.10;;;15.98;58.67;94378.63;5032361;28;20223;-83
2021/08/07 01:45:27;;;;;;;1.67;1.58;;;16.30;73.10;;;15.93;58.52;94372.44;5031825;28;20215;-82
2021/08/07 01:48:28;;;;;;;2.58;1.60;;;16.30;74.10;;;15.91;58.72;94367.41;5031385;28;20677;-82
2021/08/07 01:51:13;;;;;;;1.80;1.48;;;16.30;73.80;;;15.85;58.69;94365.72;5016456;28;20220;-82
2021/08/07 01:53:49;;;;;;;2.78;1.73;;;16.20;73.80;;;15.83;58.49;94373.06;5031669;28;20223;-83
2021/08/07 01:56:29;;;;;;;2.90;1.80;;;16.20;73.50;;;15.79;59.03;94359.50;5015644;28;20318;-83
2021/08/07 01:59:10;;;;;;;2.10;1.85;;;16.20;74.00;;;15.79;59.16;94370.06;5015251;28;20208;-82
2021/08/07 02:01:41;;;;;;;3.35;1.70;;;16.10;74.00;;;15.76;59.16;94367.09;5031699;28;20242;-82
2021/08/07 02:04:20;;;;;;;1.70;1.60;;;16.10;73.80;;;15.73;59.27;94363.09;5033017;28;20555;-83
2021/08/07 02:06:57;;;;;;;1.85;1.60;;;16.10;73.90;;;15.69;59.61;94365.41;5016762;28;20682;-83
2021/08/07 02:09:27;;;;;;;1.92;1.60;;;16.10;74.00;;;15.67;59.62;94366.69;4999713;28;20673;-83
2021/08/07 02:12:00;;;;;;;2.97;2.00;;;16.00;74.20;;;15.64;59.30;94367.19;5016211;28;20231;-82
2021/08/07 02:14:40;;;;;;;2.38;1.75;;;16.00;74.10;;;15.67;59.66;94378.09;5031732;28;20236;-82
2021/08/07 02:17:13;;;;;;;2.35;1.77;;;16.00;74.40;;;15.66;60.08;94375.66;5016426;28;20273;-83
2021/08/07 02:19:41;;;;;;;1.70;1.60;;;16.00;74.40;;;15.73;60.16;94381.59;5031954;28;20216;-83
2021/08/07 02:22:10;;;;;;;2.63;1.80;;;16.00;74.60;;;15.74;60.20;94385.06;5015362;28;20677;-84
2021/08/07 02:24:42;;;;;;;2.33;1.70;;;16.00;74.70;;;15.79;60.32;94380.66;5016172;28;20231;-83
2021/08/07 02:27:17;;;;;;;1.77;1.48;;;16.00;74.70;;;15.81;60.08;94375.94;5031825;28;20215;-84
2021/08/07 02:29:45;;;;;;;1.63;1.40;;;16.00;74.70;;;15.84;60.27;94375.50;5015352;28;20227;-84
2021/08/07 02:32:14;;;;;;;2.97;1.67;;;16.00;75.00;;;15.87;60.10;94373.41;5031559;28;20184;-83
2021/08/07 02:34:50;;;;;;;1.58;1.42;;;16.00;74.80;;;15.89;60.08;94371.34;5031755;28;20227;-84
2021/08/07 02:37:24;;;;;;;2.70;1.90;;;16.10;74.90;;;15.86;60.02;94362.03;5031706;28;20203;-83
2021/08/07 02:39:54;;;;;;;1.92;1.80;;;16.10;74.90;;;15.86;60.38;94367.31;5015217;28;20220;-84
2021/08/07 02:42:21;;;;;;;2.85;1.90;;;16.10;74.90;;;15.87;60.58;94368.94;5031451;28;20195;-83
2021/08/07 02:44:49;;;;;;;3.13;1.60;;;16.10;75.00;;;15.89;60.16;94372.13;5015332;28;20239;-83
2021/08/07 02:47:22;;;;;;;2.47;1.73;;;16.10;75.10;;;15.90;60.47;94368.44;5015977;28;20200;-84
2021/08/07 02:49:54;;;;;;;1.95;1.60;;;16.20;75.20;;;15.93;60.70;94373.28;5015995;28;20596;-83
2021/08/07 02:52:22;;;;;;;1.95;1.70;;;16.10;75.20;;;15.92;60.55;94361.09;5018338;28;20208;-82
2021/08/07 02:54:51;;;;;;;2.53;1.80;;;16.20;75.10;;;15.89;60.45;94358.91;5034972;28;20251;-83
2021/08/07 02:57:20;;;;;;;3.17;1.60;;;16.10;75.00;;;15.87;60.34;94363.66;5018673;28;20208;-82
2021/08/07 02:59:48;;;;;;;1.60;1.50;;;16.10;75.00;;;15.87;60.52;94366.28;5018714;28;20211;-83
2021/08/07 03:02:15;;;;;;;2.80;1.98;;;16.10;75.10;;;15.84;60.48;94359.63;5035241;28;20219;-82
2021/08/07 03:04:47;;;;;;;2.85;1.65;;;16.20;75.10;;;15.81;60.63;94349.50;5019376;28;20220;-83
2021/08/07 03:07:14;;;;;;;2.35;1.70;;;16.20;75.00;;;15.77;60.36;94345.72;5051651;28;20192;-84
2021/08/07 03:09:43;;;;;;;1.48;1.38;;;16.10;75.00;;;15.74;60.75;94356.78;5018676;28;20270;-83
2021/08/07 03:12:15;;;;;;;3.03;1.60;;;16.10;75.00;;;15.70;60.79;94347.72;5018992;28;20258;-83
2021/08/07 03:14:43;;;;;;;5.03;1.60;;;16.00;75.00;;;15.66;60.64;94341.28;5035379;28;20232;-84
2021/08/07 03:17:12;;;;;;;1.80;1.67;;;16.00;75.00;;;15.59;60.27;94341.44;5034777;28;20192;-84
2021/08/07 03:19:42;;;;;;;2.78;1.45;;;16.00;74.90;;;15.57;60.10;94353.31;5034886;28;20220;-83
2021/08/07 03:22:12;;;;;;;2.42;1.60;;;15.90;74.70;;;15.49;60.01;94339.41;5018433;28;20192;-83
2021/08/07 03:24:41;;;;;;;1.63;1.52;;;15.90;74.60;;;15.41;60.14;94336.38;5018839;28;20223;-84
2021/08/07 03:27:09;;;;;;;3.65;1.42;;;15.80;74.30;;;15.32;59.92;94343.88;5018330;28;20200;-84
2021/08/07 03:29:42;;;;;;;1.45;1.35;;;15.90;74.40;;;15.22;60.15;94333.88;5019444;28;20224;-83
2021/08/07 03:32:14;;;;;;;1.75;1.60;;;15.70;74.20;;;15.11;59.99;94330.25;5018917;28;20576;-83
2021/08/07 03:34:44;;;;;;;1.60;1.40;;;15.60;74.20;;;15.05;60.07;94318.78;5034655;28;20277;-83
2021/08/07 03:37:13;;;;;;;1.85;1.50;;;15.50;74.20;;;14.98;60.22;94319.97;5034396;28;20239;-83
2021/08/07 03:39:51;;;;;;;3.45;1.50;;;15.50;74.20;;;14.91;60.26;94337.78;5019838;28;20227;-83
2021/08/07 03:42:21;;;;;;;3.65;1.70;;;15.40;74.20;;;14.84;60.09;94330.78;5018226;28;20200;-83
2021/08/07 03:44:48;;;;;;;1.40;1.30;;;15.40;74.30;;;14.76;60.18;94325.84;5018785;28;20626;-84
2021/08/07 03:47:16;;;;;;;1.65;1.45;;;15.30;74.30;;;14.73;60.12;94332.41;5018368;28;20196;-84
2021/08/07 03:49:45;;;;;;;1.73;1.60;;;15.30;74.40;;;14.70;60.28;94321.50;5018482;28;20269;-84
2021/08/07 03:52:13;;;;;;;3.10;1.50;;;15.20;74.40;;;14.64;60.45;94320.56;5018159;28;20246;-83
2021/08/07 03:54:44;;;;;;;1.60;1.50;;;15.10;74.40;;;14.60;60.40;94318.59;5018211;28;20242;-83
2021/08/07 03:57:12;;;;;;;1.40;1.30;;;15.10;74.70;;;14.56;60.61;94327.00;5017946;28;20211;-83
2021/08/07 03:59:39;;;;;;;1.77;1.60;;;15.00;74.80;;;14.55;60.45;94324.59;5033855;28;20228;-82
2021/08/07 04:02:06;;;;;;;3.15;1.40;;;15.00;75.00;;;14.53;60.26;94329.31;5033125;28;20196;-82
2021/08/07 04:04:35;;;;;;;1.65;1.55;;;14.90;75.00;;;14.53;60.56;94329.31;5050236;28;20208;-84
2021/08/07 04:07:02;;;;;;;1.58;1.40;;;14.90;75.20;;;14.55;60.57;94329.88;5050504;28;20275;-82
2021/08/07 04:09:40;;;;;;;1.60;1.50;;;14.90;75.30;;;14.54;60.75;94329.06;5019215;28;20716;-83
2021/08/07 04:12:08;;;;;;;2.15;1.50;;;14.90;75.40;;;14.53;60.88;94318.75;5034040;28;20211;-83
2021/08/07 04:14:38;;;;;;;1.83;1.50;;;14.90;75.50;;;14.54;60.83;94330.91;5033485;28;20246;-83
2021/08/07 04:17:09;;;;;;;2.47;1.50;;;14.90;75.60;;;14.54;60.83;94325.63;5018325;28;20662;-83
2021/08/07 04:19:37;;;;;;;1.55;1.45;;;14.90;75.60;;;14.55;61.20;94329.88;5017429;28;20216;-83
2021/08/07 04:22:13;;;;;;;2.40;1.52;;;14.90;75.70;;;14.53;60.69;94316.09;5034317;28;20283;-83
2021/08/07 04:24:42;;;;;;;2.75;1.50;;;14.80;75.80;;;14.60;61.14;94327.34;5001477;28;20216;-83
2021/08/07 04:27:13;;;;;;;2.58;1.67;;;14.90;76.30;;;14.65;61.81;94326.66;5033663;28;20184;-83
2021/08/07 04:29:42;;;;;;;1.60;1.50;;;15.00;76.60;;;14.75;61.50;94320.81;5033371;28;20310;-82
2021/08/07 04:32:09;;;;;;;1.58;1.45;;;15.00;76.90;;;14.79;61.46;94320.09;5017041;28;20242;-82
2021/08/07 04:34:37;;;;;;;1.73;1.63;;;14.90;76.90;;;14.88;61.55;94326.63;5033412;28;20245;-82
2021/08/07 04:37:05;;;;;;;2.55;1.80;;;15.00;77.20;;;14.96;62.24;94312.25;5017073;28;20196;-83
2021/08/07 04:39:35;;;;;;;1.75;1.65;;;15.00;77.50;;;15.06;61.78;94316.94;5033643;28;20606;-83
2021/08/07 04:42:04;;;;;;;2.25;1.75;;;15.10;77.90;;;15.17;62.42;94324.03;5033082;28;20207;-83
2021/08/07 04:44:34;;;;;;;3.55;1.50;;;15.10;78.20;;;15.25;62.41;94320.22;5033073;28;20207;-83
2021/08/07 04:47:03;;;;;;;3.90;1.90;;;15.30;78.40;;;15.38;62.27;94327.06;5033140;28;20287;-83
2021/08/07 04:49:32;;;;;;;2.05;1.70;;;15.40;78.40;;;15.47;62.13;94330.91;5016871;28;20200;-83
2021/08/07 04:52:01;;;;;;;2.42;1.63;;;15.40;78.40;;;15.56;62.42;94331.34;5016536;28;20200;-83
2021/08/07 04:54:30;;;;;;;4.05;1.83;;;15.50;78.50;;;15.63;62.35;94325.91;5017066;28;20306;-83
2021/08/07 04:56:58;;;;;;;2.28;1.80;;;15.60;78.60;;;15.72;62.34;94328.97;5016304;28;20207;-83
2021/08/07 04:59:25;;;;;;;2.55;1.80;;;15.60;78.60;;;15.78;62.31;94328.84;5016852;28;20215;-82
2021/08/07 05:01:52;;;;;;;2.30;1.70;;;15.70;78.60;;;15.86;61.92;94330.31;5032523;28;20196;-82
2021/08/07 05:04:20;;;;;;;2.55;1.95;;;15.80;78.70;;;15.96;62.01;94325.16;5000445;28;20204;-82
2021/08/07 05:06:49;;;;;;;2.55;1.95;;;15.90;78.80;;;16.06;62.56;94327.19;5016828;28;20364;-82
2021/08/07 05:09:16;;;;;;;2.83;2.00;;;16.00;78.90;;;16.20;62.55;94326.84;5032724;28;20219;-83
2021/08/07 05:12:07;;;;;;;6.45;1.80;;;16.10;78.90;;;16.35;62.52;94326.31;5029885;28;20204;-83
2021/08/07 05:14:39;;;;;;;1.50;1.40;;;16.10;78.90;;;16.53;62.51;94331.31;5016744;28;20240;-82
2021/08/07 05:17:07;;;;;;;1.65;1.50;;;16.30;79.10;;;16.71;62.50;94332.91;5016188;28;20292;-83
2021/08/07 05:19:35;;;;;;;2.28;1.75;;;16.50;79.30;;;16.88;62.42;94332.84;5032755;28;20256;-82
2021/08/07 05:22:02;;;;;;;1.80;1.60;;;16.50;80.10;;;17.09;62.68;94320.69;5032216;28;20208;-83
2021/08/07 05:24:30;;;;;;;2.05;1.75;;;16.70;79.40;;;17.26;62.59;94322.47;5016131;28;20512;-83
2021/08/07 05:26:57;;;;;;;2.95;1.63;;;16.90;79.50;;;17.49;62.55;94323.22;5032619;28;20207;-83
2021/08/07 05:29:25;;;;;;;3.40;1.90;;;17.00;79.80;;;17.71;62.78;94324.00;5032151;28;20191;-82
2021/08/07 05:31:52;;;;;;;2.15;1.60;;;17.20;79.70;;;17.90;62.42;94335.03;5033458;28;20192;-83
2021/08/07 05:34:19;;;;;;;1.75;1.65;;;17.40;79.90;;;18.08;62.48;94344.50;5032521;28;20275;-84
2021/08/07 05:36:46;;;;;;;2.13;1.92;;;17.60;80.00;;;18.23;62.43;94335.06;5024628;28;20566;-84
2021/08/07 05:39:14;;;;;;;1.80;1.70;;;17.70;80.10;;;18.37;62.38;94338.06;4996366;28;20203;-83
2021/08/07 05:41:41;;;;;;;3.55;1.73;;;17.80;80.10;;;18.52;61.94;94329.44;4995913;28;20571;-83
2021/08/07 05:44:08;;;;;;;1.77;1.67;;;18.00;79.70;;;18.65;61.60;94333.47;4979828;28;20243;-82
2021/08/07 05:46:37;;;;;;;2.42;2.00;;;18.10;79.60;;;18.76;61.74;94329.84;4995740;28;20216;-82
2021/08/07 05:49:04;;;;;;;2.25;2.05;;;18.30;79.50;;;18.85;61.97;94325.63;4995951;28;20192;-83
2021/08/07 05:51:35;;;;;;;3.30;1.75;;;18.40;80.00;;;18.97;61.81;94335.25;5012469;28;20217;-82
2021/08/07 05:54:04;;;;;;;2.33;1.80;;;18.60;79.20;;;19.07;61.70;94331.88;4996108;28;20705;-82
2021/08/07 05:56:32;;;;;;;2.00;1.80;;;18.70;79.00;;;19.12;61.20;94331.91;4979590;28;20234;-83
2021/08/07 05:59:00;;;;;;;2.55;1.73;;;18.80;78.80;;;19.23;61.24;94338.06;5028341;28;20193;-82
2021/08/07 06:01:28;;;;;;;1.70;1.60;;;18.90;78.70;;;19.33;60.93;94341.56;5027936;28;20223;-82
2021/08/07 06:03:56;;;;;;;1.95;1.77;;;18.90;78.50;;;19.42;61.29;94343.69;5011830;28;20208;-82
2021/08/07 06:06:23;;;;;;;3.70;2.30;;;19.00;78.40;;;19.51;61.37;94347.44;4979292;28;20707;-82
2021/08/07 06:08:50;;;;;;;2.08;1.98;;;19.10;78.50;;;19.66;61.26;94339.53;4995517;28;20216;-82
2021/08/07 06:11:17;;;;;;;2.47;1.60;;;19.20;78.40;;;19.79;61.10;94345.38;5011383;28;20575;-82
2021/08/07 06:13:44;;;;;;;2.28;1.80;;;19.40;78.60;;;19.88;61.26;94341.16;4996246;28;20272;-80
2021/08/07 06:16:14;;;;;;;2.15;1.73;;;19.50;78.70;;;20.02;60.64;94344.13;5002297;28;20251;-82
2021/08/07 06:18:42;;;;;;;1.95;1.73;;;19.60;78.70;;;20.13;61.10;94339.59;4995389;28;20297;-81
2021/08/07 06:21:11;;;;;;;2.10;1.88;;;19.70;78.70;;;20.20;60.55;94337.47;5011317;28;20217;-82
2021/08/07 06:23:40;;;;;;;2.42;1.67;;;19.80;78.60;;;20.32;60.83;94329.19;5011484;28;20201;-82
2021/08/07 06:26:09;;;;;;;2.00;1.80;;;19.90;78.50;;;20.43;60.57;94327.31;5011307;28;20722;-82
2021/08/07 06:28:38;;;;;;;2.00;1.80;;;20.00;78.40;;;20.55;60.80;94335.03;5011421;28;20197;-82
2021/08/07 06:31:09;;;;;;;1.73;1.63;;;20.10;78.30;;;20.59;60.21;94326.25;5011591;28;20228;-82
2021/08/07 06:33:38;;;;;;;1.70;1.60;;;20.20;78.20;;;20.66;60.35;94330.50;5011698;28;20682;-82
2021/08/07 06:36:08;;;;;;;2.20;1.80;;;20.30;78.00;;;20.76;60.51;94336.63;5011278;28;20228;-82
2021/08/07 06:38:37;;;;;;;1.77;1.67;;;20.30;78.10;;;20.85;60.25;94338.72;5011432;28;20201;-82
2021/08/07 06:41:05;;;;;;;3.25;2.42;;;20.40;78.10;;;20.95;60.38;94342.16;4995342;28;20695;-83
2021/08/07 06:43:44;;;;;;;2.95;2.00;;;20.50;78.20;;;21.05;60.31;94341.34;5011399;28;20200;-83
2021/08/07 06:46:20;;;;;;;2.65;1.67;;;20.60;78.00;;;21.16;60.20;94349.31;5012812;28;20224;-82
2021/08/07 06:48:49;;;;;;;2.55;2.00;;;20.70;77.80;;;21.27;59.73;94348.19;5011348;28;20205;-82
2021/08/07 06:51:16;;;;;;;1.85;1.40;;;20.80;77.60;;;21.40;59.67;94352.94;5011074;28;20221;-82
2021/08/07 06:53:45;;;;;;;1.70;1.60;;;20.90;77.50;;;21.52;59.71;94351.81;5011207;28;20203;-82
2021/08/07 06:56:13;;;;;;;1.85;1.75;;;21.00;77.30;;;21.68;58.94;94349.91;5011433;28;20573;-82
2021/08/07 06:58:41;;;;;;;1.60;1.50;;;21.10;77.40;;;21.83;58.97;94349.81;4979147;28;20213;-83
2021/08/07 07:01:08;;;;;;;1.90;1.50;;;21.20;77.00;;;21.92;58.26;94352.69;5011221;28;20680;-83
2021/08/07 07:03:35;;;;;;;1.83;1.63;;;21.30;76.10;;;22.02;57.91;94362.50;5011477;28;20226;-82
2021/08/07 07:06:05;;;;;;;1.75;1.52;;;21.50;76.20;;;22.11;58.01;94354.72;5013586;28;20209;-82
2021/08/07 07:08:32;;;;;;;1.83;1.55;;;21.50;76.20;;;22.23;57.80;94352.50;4993910;28;20206;-83
2021/08/07 07:11:00;;;;;;;1.58;1.48;;;21.60;75.90;;;22.35;57.54;94358.25;5011181;28;20594;-83
2021/08/07 07:13:27;;;;;;;2.47;1.58;;;21.70;75.80;;;22.42;57.02;94354.50;5010949;28;20206;-82
2021/08/07 07:15:55;;;;;;;3.85;1.55;;;21.90;75.20;;;22.49;56.95;94355.75;5010806;28;20724;-82
2021/08/07 07:18:24;;;;;;;2.97;1.58;;;21.90;75.00;;;22.55;56.56;94357.31;4995105;28;20577;-82
2021/08/07 07:20:51;;;;;;;2.13;1.50;;;22.00;74.80;;;22.62;56.08;94357.00;5011322;28;20234;-82
2021/08/07 07:23:18;;;;;;;2.10;1.50;;;22.00;74.60;;;22.73;56.51;94360.38;5010924;28;20212;-83
2021/08/07 07:25:45;;;;;;;1.50;1.30;;;22.10;74.50;;;22.82;56.13;94347.19;5010960;28;20704;-83
2021/08/07 07:28:12;;;;;;;3.08;1.30;;;22.20;74.50;;;22.92;55.69;94349.75;5027334;28;20206;-83
2021/08/07 07:30:40;;;;;;;1.77;1.60;;;22.30;74.40;;;23.05;55.30;94348.28;5011276;28;20251;-83
2021/08/07 07:33:07;;;;;;;1.63;1.30;;;22.40;74.00;;;23.14;54.63;94338.56;5011065;28;20259;-83
2021/08/07 07:35:35;;;;;;;1.90;1.50;;;22.50;73.10;;;23.21;54.51;94332.09;5010652;28;20656;-82
2021/08/07 07:38:02;;;;;;;1.40;1.30;;;22.60;74.10;;;23.32;54.89;94334.34;5012045;28;20221;-83
2021/08/07 07:40:30;;;;;;;1.25;1.15;;;22.60;73.10;;;23.47;54.82;94335.22;5030525;28;20243;-84
2021/08/07 07:42:58;;;;;;;1.70;1.40;;;22.80;73.40;;;23.63;54.78;94331.28;5014330;28;20540;-83
2021/08/07 07:45:25;;;;;;;2.53;1.30;;;22.80;73.60;;;23.85;54.54;94337.91;5030275;28;20699;-82
2021/08/07 07:47:57;;;;;;;1.50;1.40;;;23.00;73.50;;;24.05;54.07;94328.84;5014117;28;20193;-83
2021/08/07 07:50:25;;;;;;;1.70;1.40;;;23.20;74.40;;;24.28;54.13;94327.13;5014348;28;20319;-83
2021/08/07 07:52:57;;;;;;;4.10;1.30;;;23.30;73.60;;;24.51;53.43;94326.50;5014147;28;20212;-83
2021/08/07 07:55:26;;;;;;;1.63;1.52;;;23.50;73.20;;;24.66;53.20;94325.47;5039305;28;20224;-83
2021/08/07 07:57:58;;;;;;;2.03;1.85;;;23.70;72.80;;;24.76;52.53;94323.38;5013352;28;20192;-82
2021/08/07 08:00:28;;;;;;;2.08;1.60;;;23.80;71.50;;;24.83;51.90;94320.34;4982130;28;20255;-82
2021/08/07 08:02:57;;;;;;;2.50;1.40;;;24.00;71.60;;;24.87;51.82;94315.16;4997584;28;20192;-82
2021/08/07 08:05:35;;;;;;;1.85;1.60;;;24.10;71.10;;;24.90;51.56;94317.25;4984580;28;20220;-82
2021/08/07 08:08:05;;;;;;;1.83;1.63;;;24.20;70.90;;;24.90;51.42;94317.25;4997075;28;20201;-82
2021/08/07 08:10:36;;;;;;;2.08;1.70;;;24.20;70.50;;;24.87;51.04;94310.59;4997761;28;20228;-82
2021/08/07 08:13:06;;;;;;;1.80;1.50;;;24.30;70.10;;;24.85;51.24;94301.25;4998033;28;20295;-83
2021/08/07 08:15:37;;;;;;;1.70;1.60;;;24.30;70.20;;;24.81;51.35;94308.31;4997435;28;20240;-82
2021/08/07 08:18:07;;;;;;;1.58;1.48;;;24.30;70.20;;;24.85;51.41;94306.63;4981786;28;20198;-84
2021/08/07 08:20:38;;;;;;;2.17;1.60;;;24.30;70.10;;;24.89;52.00;94308.41;4998007;28;20308;-84
2021/08/07 08:23:06;;;;;;;1.65;1.55;;;24.40;70.20;;;24.98;51.10;94302.38;5013690;28;20201;-83
2021/08/07 08:25:34;;;;;;;2.38;2.00;;;24.40;70.10;;;25.06;51.18;94301.66;5013074;28;20300;-83
2021/08/07 08:28:01;;;;;;;1.98;1.52;;;24.50;70.20;;;25.14;51.02;94295.59;4981139;28;20214;-83
2021/08/07 08:30:29;;;;;;;1.58;1.33;;;24.50;70.00;;;25.22;51.05;94297.56;4996879;28;20232;-83
2021/08/07 08:32:56;;;;;;;2.28;1.80;;;24.60;70.30;;;25.32;50.41;94301.94;4981187;28;20255;-83
2021/08/07 08:35:24;;;;;;;5.07;2.00;;;24.70;69.60;;;25.34;50.12;94307.00;4981232;28;20232;-84
2021/08/07 08:37:52;;;;;;;3.22;1.40;;;24.70;69.20;;;25.30;50.21;94304.13;4981252;28;20347;-84
2021/08/07 08:40:20;;;;;;;1.50;1.40;;;24.80;69.00;;;25.27;49.96;94304.72;5013762;28;20212;-83
2021/08/07 08:42:47;;;;;;;2.65;1.98;;;24.80;68.90;;;25.23;50.23;94309.91;5013267;28;20224;-85
2021/08/07 08:45:15;;;;;;;1.80;1.70;;;24.80;68.90;;;25.22;49.81;94319.03;5013266;28;20240;-85
2021/08/07 08:47:43;;;;;;;2.20;1.60;;;24.80;68.60;;;25.19;50.12;94321.53;4997076;28;20209;-85
2021/08/07 08:50:12;;;;;;;1.90;1.63;;;24.80;68.80;;;25.19;50.17;94325.00;4996633;28;20289;-84
2021/08/07 08:52:41;;;;;;;1.77;1.67;;;24.80;69.00;;;25.21;49.92;94328.19;4980843;28;20585;-84
2021/08/07 08:55:11;;;;;;;3.10;1.80;;;24.80;68.70;;;25.21;49.68;94320.13;4995575;28;20235;-83
2021/08/07 08:57:39;;;;;;;2.08;1.80;;;24.80;68.70;;;25.23;49.79;94320.63;5012505;28;20218;-83
2021/08/07 09:00:09;;;;;;;2.47;1.70;;;24.80;68.30;;;25.27;49.32;94310.09;4980635;28;20220;-84
2021/08/07 09:02:39;;;;;;;1.90;1.70;;;24.80;68.40;;;25.31;49.46;94305.72;5013194;28;22476;-83
2021/08/07 09:05:13;;;;;;;3.60;2.08;;;24.80;68.30;;;25.36;49.18;94302.91;4996549;28;20225;-83
2021/08/07 09:07:45;;;;;;;2.03;1.80;;;24.90;68.30;;;25.41;48.84;94300.19;5012096;28;20648;-83
2021/08/07 09:10:16;;;;;;;2.25;1.73;;;24.90;67.60;;;25.48;49.17;94307.81;4981496;28;20231;-83
2021/08/07 09:12:55;;;;;;;2.65;2.13;;;24.90;68.20;;;25.54;49.15;94314.66;5012996;28;20211;-82
2021/08/07 09:15:48;;;;;;;2.13;1.90;;;25.00;68.50;;;25.63;49.31;94304.00;4996470;28;20231;-83
2021/08/07 09:18:29;;;;;;;2.53;1.70;;;25.00;68.40;;;25.80;49.39;94307.94;4998216;28;20213;-84
2021/08/07 09:21:17;;;;;;;1.92;1.73;;;25.10;68.80;;;25.93;49.00;94307.09;4998016;28;20209;-84
2021/08/07 09:24:07;;;;;;;1.92;1.70;;;25.30;68.40;;;26.05;48.57;94298.50;4997768;28;20654;-84
2021/08/07 09:26:42;;;;;;;2.10;1.73;;;25.40;67.90;;;26.18;48.30;94300.38;4996774;28;20622;-83
2021/08/07 09:29:10;;;;;;;1.85;1.75;;;25.50;67.70;;;26.27;48.24;94292.34;4980938;28;20304;-84
2021/08/07 09:31:58;;;;;;;1.95;1.73;;;25.60;67.70;;;26.32;47.82;94296.81;4996622;28;20264;-84
2021/08/07 09:34:28;;;;;;;1.67;1.58;;;25.70;67.60;;;26.35;47.36;94294.31;4980885;28;20569;-83
2021/08/07 09:36:59;;;;;;;2.13;1.90;;;25.70;67.10;;;26.35;47.19;94299.69;4980883;28;20237;-84
2021/08/07 09:39:42;;;;;;;1.65;1.55;;;25.80;66.90;;;26.34;46.71;94291.91;4996815;28;20656;-83
2021/08/07 09:42:53;;;;;;;3.17;2.00;;;25.80;66.60;;;26.30;47.46;94280.97;5012067;28;20679;-83
2021/08/07 09:45:26;;;;;;;3.47;1.65;;;25.80;67.10;;;26.31;47.10;94277.19;4980487;28;20291;-83
2021/08/07 09:48:00;;;;;;;4.50;2.28;;;25.80;67.00;;;26.33;46.99;94279.56;4995838;28;20286;-84
2021/08/07 09:50:31;;;;;;;1.83;1.70;;;25.80;66.40;;;26.35;46.56;94277.38;5011866;28;20220;-84
2021/08/07 09:53:04;;;;;;;296.23;57.92;;;25.80;66.00;;;26.36;47.26;94276.28;5012203;28;20238;-83
2021/08/07 09:55:32;;;;;;;21.17;7.93;;;25.80;66.30;;;26.37;46.88;94272.47;4995423;28;20227;-83
2021/08/07 09:58:12;;;;;;;6.15;2.90;;;25.90;66.40;;;26.38;46.87;94271.38;5011899;28;20798;-83
2021/08/07 10:00:44;;;;;;;47.70;7.28;;;25.90;66.40;;;26.40;46.63;94279.13;4995379;28;20244;-83
2021/08/07 10:03:27;;;;;;;22.88;7.05;;;25.90;66.10;;;26.42;46.59;94276.94;4981765;28;20206;-83
2021/08/07 10:06:31;;;;;;;5.30;2.92;;;25.80;65.60;;;26.44;46.53;94264.78;4995796;28;20226;-83
2021/08/07 10:09:04;;;;;;;2.10;1.90;;;25.90;66.40;;;26.49;46.31;94259.25;4991175;28;20205;-83
2021/08/07 10:11:32;;;;;;;1.85;1.52;;;25.90;66.00;;;26.53;46.94;94238.69;4979127;28;20704;-83
2021/08/07 10:14:05;;;;;;;2.00;1.80;;;26.00;66.30;;;26.61;46.31;94241.75;4996310;28;20284;-83
2021/08/07 10:16:39;;;;;;;1.90;1.70;;;26.00;66.00;;;26.67;46.71;94243.19;4996417;28;20257;-83
2021/08/07 10:19:07;;;;;;;10.70;2.30;;;26.00;66.00;;;26.71;46.52;94244.16;4995454;28;20285;-82
2021/08/07 10:21:36;;;;;;;17.08;2.63;;;26.10;66.20;;;26.81;46.59;94249.28;4995673;28;20222;-82
2021/08/07 10:24:06;;;;;;;2.17;1.73;;;26.10;66.10;;;26.92;46.60;94243.63;4995769;28;20199;-83
2021/08/07 10:26:35;;;;;;;1.98;1.80;;;26.20;66.00;;;26.98;46.00;94235.09;5011593;28;20242;-83
2021/08/07 10:29:04;;;;;;;2.35;1.70;;;26.30;65.70;;;27.08;46.24;94228.63;4979114;28;20204;-84
2021/08/07 10:31:35;;;;;;;2.70;1.73;;;26.40;66.00;;;27.19;46.21;94231.03;4995302;28;20218;-85
2021/08/07 10:34:08;;;;;;;1.92;1.83;;;26.50;65.90;;;27.31;46.16;94236.59;4980813;28;20205;-83
2021/08/07 10:36:37;;;;;;;4.82;2.42;;;26.50;65.90;;;27.41;45.15;94230.91;4995173;28;20236;-83
2021/08/07 10:39:07;;;;;;;1.95;1.75;;;26.60;65.30;;;27.49;45.58;94232.06;5011622;28;20561;-83